sensor_id;sensor_type;location;lat;lon;timestamp;P1;durP1;ratioP1;P2;durP2;ratioP2
11582;SDS011;34299;50.820;4.548;2022-08-11T00:02:08;3.03;;;2.73;;
11582;SDS011;34299;50.820;4.548;2022-08-11T00:04:36;2.80;;;2.50;;
11582;SDS011;34299;50.820;4.548;2022-08-11T00:07:04;4.13;;;2.37;;
11582;SDS011;34299;50.820;4.548;2022-08-11T00:09:34;4.10;;;2.77;;
11582;SDS011;34299;50.820;4.548;2022-08-11T00:12:02;2.93;;;2.13;;
11582;SDS011;34299;50.820;4.548;2022-08-11T00:14:31;4.60;;;2.30;;
11582;SDS011;34299;50.820;4.548;2022-08-11T00:17:00;5.07;;;2.60;;
11582;SDS011;34299;50.820;4.548;2022-08-11T00:19:28;4.30;;;2.33;;
11582;SDS011;34299;50.820;4.548;2022-08-11T00:21:57;2.47;;;2.27;;
11582;SDS011;34299;50.820;4.548;2022-08-11T00:24:25;5.00;;;2.20;;
11582;SDS011;34299;50.820;4.548;2022-08-11T00:26:58;4.23;;;2.30;;
11582;SDS011;34299;50.820;4.548;2022-08-11T00:29:25;2.73;;;2.43;;
11582;SDS011;34299;50.820;4.548;2022-08-11T00:31:53;4.47;;;2.70;;
11582;SDS011;34299;50.820;4.548;2022-08-11T00:34:24;4.53;;;2.60;;
11582;SDS011;34299;50.820;4.548;2022-08-11T00:36:53;2.70;;;2.50;;
11582;SDS011;34299;50.820;4.548;2022-08-11T00:39:21;3.37;;;2.40;;
11582;SDS011;34299;50.820;4.548;2022-08-11T00:41:56;3.03;;;2.03;;
11582;SDS011;34299;50.820;4.548;2022-08-11T00:44:29;2.93;;;2.60;;
11582;SDS011;34299;50.820;4.548;2022-08-11T00:47:01;2.53;;;2.20;;
11582;SDS011;34299;50.820;4.548;2022-08-11T00:49:38;2.93;;;2.57;;
11582;SDS011;34299;50.820;4.548;2022-08-11T00:52:12;2.80;;;2.37;;
11582;SDS011;34299;50.820;4.548;2022-08-11T00:55:02;3.77;;;2.23;;
11582;SDS011;34299;50.820;4.548;2022-08-11T00:57:40;3.60;;;2.40;;
11582;SDS011;34299;50.820;4.548;2022-08-11T01:00:12;2.70;;;2.40;;
11582;SDS011;34299;50.820;4.548;2022-08-11T01:02:44;4.27;;;2.33;;
11582;SDS011;34299;50.820;4.548;2022-08-11T01:05:19;2.47;;;2.07;;
11582;SDS011;34299;50.820;4.548;2022-08-11T01:13:29;2.67;;;2.40;;
11582;SDS011;34299;50.820;4.548;2022-08-11T01:16:06;3.13;;;2.80;;
11582;SDS011;34299;50.820;4.548;2022-08-11T01:24:37;2.50;;;2.30;;
11582;SDS011;34299;50.820;4.548;2022-08-11T01:27:30;3.00;;;2.70;;
11582;SDS011;34299;50.820;4.548;2022-08-11T01:30:13;2.80;;;2.50;;
11582;SDS011;34299;50.820;4.548;2022-08-11T01:32:53;3.40;;;2.53;;
11582;SDS011;34299;50.820;4.548;2022-08-11T01:35:34;3.13;;;2.70;;
11582;SDS011;34299;50.820;4.548;2022-08-11T01:38:22;3.40;;;2.30;;
11582;SDS011;34299;50.820;4.548;2022-08-11T01:43:47;2.93;;;2.50;;
11582;SDS011;34299;50.820;4.548;2022-08-11T01:46:42;2.63;;;2.40;;
11582;SDS011;34299;50.820;4.548;2022-08-11T01:49:20;2.83;;;2.43;;
11582;SDS011;34299;50.820;4.548;2022-08-11T01:51:59;5.23;;;2.80;;
11582;SDS011;34299;50.820;4.548;2022-08-11T01:54:30;3.27;;;2.60;;
11582;SDS011;34299;50.820;4.548;2022-08-11T01:57:04;2.17;;;1.97;;
11582;SDS011;34299;50.820;4.548;2022-08-11T01:59:36;2.97;;;2.40;;
11582;SDS011;34299;50.820;4.548;2022-08-11T02:05:28;3.40;;;2.20;;
11582;SDS011;34299;50.820;4.548;2022-08-11T02:08:07;2.27;;;1.97;;
11582;SDS011;34299;50.820;4.548;2022-08-11T02:10:38;6.33;;;2.50;;
11582;SDS011;34299;50.820;4.548;2022-08-11T02:13:31;2.93;;;2.30;;
11582;SDS011;34299;50.820;4.548;2022-08-11T02:16:03;2.60;;;1.90;;
11582;SDS011;34299;50.820;4.548;2022-08-11T02:18:37;2.43;;;2.13;;
11582;SDS011;34299;50.820;4.548;2022-08-11T02:21:26;3.20;;;2.40;;
11582;SDS011;34299;50.820;4.548;2022-08-11T02:24:16;2.43;;;2.20;;
11582;SDS011;34299;50.820;4.548;2022-08-11T02:26:45;2.60;;;2.30;;
11582;SDS011;34299;50.820;4.548;2022-08-11T02:29:15;5.03;;;2.53;;
11582;SDS011;34299;50.820;4.548;2022-08-11T02:31:46;3.57;;;2.27;;
11582;SDS011;34299;50.820;4.548;2022-08-11T02:34:44;2.97;;;2.67;;
11582;SDS011;34299;50.820;4.548;2022-08-11T02:37:17;2.73;;;2.50;;
11582;SDS011;34299;50.820;4.548;2022-08-11T02:39:54;5.00;;;2.70;;
11582;SDS011;34299;50.820;4.548;2022-08-11T02:42:28;2.33;;;1.83;;
11582;SDS011;34299;50.820;4.548;2022-08-11T02:44:59;2.57;;;2.07;;
11582;SDS011;34299;50.820;4.548;2022-08-11T02:47:31;2.80;;;2.53;;
11582;SDS011;34299;50.820;4.548;2022-08-11T02:50:03;2.93;;;2.27;;
11582;SDS011;34299;50.820;4.548;2022-08-11T02:52:33;4.87;;;2.40;;
11582;SDS011;34299;50.820;4.548;2022-08-11T02:55:20;4.27;;;2.97;;
11582;SDS011;34299;50.820;4.548;2022-08-11T02:57:50;3.53;;;2.80;;
11582;SDS011;34299;50.820;4.548;2022-08-11T03:00:18;3.37;;;2.70;;
11582;SDS011;34299;50.820;4.548;2022-08-11T03:02:54;3.00;;;2.70;;
11582;SDS011;34299;50.820;4.548;2022-08-11T03:05:30;2.60;;;2.00;;
11582;SDS011;34299;50.820;4.548;2022-08-11T03:08:06;2.80;;;2.20;;
11582;SDS011;34299;50.820;4.548;2022-08-11T03:10:40;3.03;;;2.63;;
11582;SDS011;34299;50.820;4.548;2022-08-11T03:13:11;3.53;;;2.70;;
11582;SDS011;34299;50.820;4.548;2022-08-11T03:16:02;3.80;;;2.53;;
11582;SDS011;34299;50.820;4.548;2022-08-11T03:18:52;3.57;;;2.30;;
11582;SDS011;34299;50.820;4.548;2022-08-11T03:21:23;2.50;;;2.30;;
11582;SDS011;34299;50.820;4.548;2022-08-11T03:23:52;3.47;;;2.80;;
11582;SDS011;34299;50.820;4.548;2022-08-11T03:26:24;2.70;;;2.50;;
11582;SDS011;34299;50.820;4.548;2022-08-11T03:29:00;2.80;;;2.23;;
11582;SDS011;34299;50.820;4.548;2022-08-11T03:31:31;2.20;;;2.07;;
11582;SDS011;34299;50.820;4.548;2022-08-11T03:34:00;3.57;;;2.50;;
11582;SDS011;34299;50.820;4.548;2022-08-11T03:39:17;3.30;;;2.43;;
11582;SDS011;34299;50.820;4.548;2022-08-11T03:41:51;3.17;;;2.33;;
11582;SDS011;34299;50.820;4.548;2022-08-11T03:47:23;2.80;;;1.93;;
11582;SDS011;34299;50.820;4.548;2022-08-11T03:50:00;2.80;;;2.60;;
11582;SDS011;34299;50.820;4.548;2022-08-11T03:52:38;4.77;;;2.03;;
11582;SDS011;34299;50.820;4.548;2022-08-11T03:55:09;3.53;;;2.30;;
11582;SDS011;34299;50.820;4.548;2022-08-11T04:00:42;2.70;;;2.30;;
11582;SDS011;34299;50.820;4.548;2022-08-11T04:06:13;2.70;;;2.50;;
11582;SDS011;34299;50.820;4.548;2022-08-11T04:08:54;2.47;;;2.27;;
11582;SDS011;34299;50.820;4.548;2022-08-11T04:17:21;4.97;;;2.30;;
11582;SDS011;34299;50.820;4.548;2022-08-11T04:20:17;6.67;;;2.97;;
11582;SDS011;34299;50.820;4.548;2022-08-11T04:25:42;2.40;;;2.20;;
11582;SDS011;34299;50.820;4.548;2022-08-11T04:28:37;3.40;;;2.50;;
11582;SDS011;34299;50.820;4.548;2022-08-11T04:31:15;5.20;;;2.40;;
11582;SDS011;34299;50.820;4.548;2022-08-11T04:36:36;3.57;;;2.90;;
11582;SDS011;34299;50.820;4.548;2022-08-11T04:39:27;4.40;;;2.60;;
11582;SDS011;34299;50.820;4.548;2022-08-11T04:42:10;3.43;;;2.60;;
11582;SDS011;34299;50.820;4.548;2022-08-11T04:47:47;3.07;;;2.77;;
11582;SDS011;34299;50.820;4.548;2022-08-11T04:50:44;4.17;;;2.80;;
11582;SDS011;34299;50.820;4.548;2022-08-11T04:53:40;2.47;;;2.20;;
11582;SDS011;34299;50.820;4.548;2022-08-11T04:56:27;3.60;;;2.80;;
11582;SDS011;34299;50.820;4.548;2022-08-11T05:02:28;2.90;;;2.70;;
11582;SDS011;34299;50.820;4.548;2022-08-11T05:05:02;3.60;;;2.30;;
11582;SDS011;34299;50.820;4.548;2022-08-11T05:10:50;5.03;;;2.37;;
11582;SDS011;34299;50.820;4.548;2022-08-11T05:13:23;4.23;;;2.90;;
11582;SDS011;34299;50.820;4.548;2022-08-11T05:16:10;3.00;;;2.70;;
11582;SDS011;34299;50.820;4.548;2022-08-11T05:18:55;6.27;;;3.73;;
11582;SDS011;34299;50.820;4.548;2022-08-11T05:21:41;5.40;;;2.80;;
11582;SDS011;34299;50.820;4.548;2022-08-11T05:24:29;4.00;;;2.80;;
11582;SDS011;34299;50.820;4.548;2022-08-11T05:27:16;3.43;;;2.70;;
11582;SDS011;34299;50.820;4.548;2022-08-11T05:30:03;3.00;;;2.70;;
11582;SDS011;34299;50.820;4.548;2022-08-11T05:32:54;5.30;;;3.03;;
11582;SDS011;34299;50.820;4.548;2022-08-11T05:35:40;3.73;;;2.40;;
11582;SDS011;34299;50.820;4.548;2022-08-11T05:38:10;2.80;;;2.60;;
11582;SDS011;34299;50.820;4.548;2022-08-11T05:40:56;4.80;;;2.60;;
11582;SDS011;34299;50.820;4.548;2022-08-11T05:43:43;3.13;;;2.80;;
11582;SDS011;34299;50.820;4.548;2022-08-11T05:46:28;4.40;;;2.90;;
11582;SDS011;34299;50.820;4.548;2022-08-11T05:49:13;3.80;;;2.80;;
11582;SDS011;34299;50.820;4.548;2022-08-11T05:51:59;3.67;;;2.80;;
11582;SDS011;34299;50.820;4.548;2022-08-11T05:54:44;4.33;;;3.03;;
11582;SDS011;34299;50.820;4.548;2022-08-11T05:57:31;4.00;;;3.10;;
11582;SDS011;34299;50.820;4.548;2022-08-11T06:00:00;3.40;;;3.10;;
11582;SDS011;34299;50.820;4.548;2022-08-11T06:02:29;5.47;;;3.30;;
11582;SDS011;34299;50.820;4.548;2022-08-11T06:04:56;4.70;;;3.33;;
11582;SDS011;34299;50.820;4.548;2022-08-11T06:07:26;4.60;;;3.30;;
11582;SDS011;34299;50.820;4.548;2022-08-11T06:09:54;3.50;;;3.20;;
11582;SDS011;34299;50.820;4.548;2022-08-11T06:12:22;3.60;;;3.30;;
11582;SDS011;34299;50.820;4.548;2022-08-11T06:14:53;4.30;;;3.30;;
11582;SDS011;34299;50.820;4.548;2022-08-11T06:17:22;6.83;;;3.57;;
11582;SDS011;34299;50.820;4.548;2022-08-11T06:19:50;4.07;;;3.33;;
11582;SDS011;34299;50.820;4.548;2022-08-11T06:22:21;4.77;;;3.20;;
11582;SDS011;34299;50.820;4.548;2022-08-11T06:24:52;5.93;;;3.37;;
11582;SDS011;34299;50.820;4.548;2022-08-11T06:27:22;6.37;;;3.57;;
11582;SDS011;34299;50.820;4.548;2022-08-11T06:29:50;8.13;;;3.97;;
11582;SDS011;34299;50.820;4.548;2022-08-11T06:32:18;4.40;;;3.43;;
11582;SDS011;34299;50.820;4.548;2022-08-11T06:35:11;8.40;;;3.30;;
11582;SDS011;34299;50.820;4.548;2022-08-11T06:37:43;5.73;;;3.20;;
11582;SDS011;34299;50.820;4.548;2022-08-11T06:40:15;4.03;;;2.90;;
11582;SDS011;34299;50.820;4.548;2022-08-11T06:42:49;3.93;;;2.93;;
11582;SDS011;34299;50.820;4.548;2022-08-11T06:45:22;4.80;;;3.00;;
11582;SDS011;34299;50.820;4.548;2022-08-11T06:47:51;4.70;;;3.20;;
11582;SDS011;34299;50.820;4.548;2022-08-11T06:50:21;5.40;;;2.70;;
11582;SDS011;34299;50.820;4.548;2022-08-11T06:53:06;3.63;;;3.13;;
11582;SDS011;34299;50.820;4.548;2022-08-11T06:55:37;4.67;;;2.93;;
11582;SDS011;34299;50.820;4.548;2022-08-11T06:58:24;5.03;;;3.20;;
11582;SDS011;34299;50.820;4.548;2022-08-11T07:01:11;7.87;;;3.37;;
11582;SDS011;34299;50.820;4.548;2022-08-11T07:03:39;5.90;;;3.37;;
11582;SDS011;34299;50.820;4.548;2022-08-11T07:06:17;6.60;;;3.27;;
11582;SDS011;34299;50.820;4.548;2022-08-11T07:08:56;3.87;;;3.57;;
11582;SDS011;34299;50.820;4.548;2022-08-11T07:14:52;4.63;;;3.00;;
11582;SDS011;34299;50.820;4.548;2022-08-11T07:17:40;3.47;;;3.17;;
11582;SDS011;34299;50.820;4.548;2022-08-11T07:20:08;3.20;;;2.90;;
11582;SDS011;34299;50.820;4.548;2022-08-11T07:22:56;6.50;;;3.30;;
11582;SDS011;34299;50.820;4.548;2022-08-11T07:25:42;3.73;;;3.13;;
11582;SDS011;34299;50.820;4.548;2022-08-11T07:28:30;6.43;;;3.50;;
11582;SDS011;34299;50.820;4.548;2022-08-11T07:31:19;4.20;;;2.90;;
11582;SDS011;34299;50.820;4.548;2022-08-11T07:33:48;3.50;;;3.00;;
11582;SDS011;34299;50.820;4.548;2022-08-11T07:36:16;3.57;;;2.70;;
11582;SDS011;34299;50.820;4.548;2022-08-11T07:38:46;5.83;;;2.83;;
11582;SDS011;34299;50.820;4.548;2022-08-11T07:41:15;4.67;;;3.03;;
11582;SDS011;34299;50.820;4.548;2022-08-11T07:43:43;8.70;;;3.23;;
11582;SDS011;34299;50.820;4.548;2022-08-11T07:46:13;4.50;;;2.70;;
11582;SDS011;34299;50.820;4.548;2022-08-11T07:48:58;3.13;;;2.50;;
11582;SDS011;34299;50.820;4.548;2022-08-11T07:51:43;5.73;;;2.60;;
11582;SDS011;34299;50.820;4.548;2022-08-11T07:54:30;2.93;;;2.50;;
11582;SDS011;34299;50.820;4.548;2022-08-11T07:56:57;3.70;;;2.90;;
11582;SDS011;34299;50.820;4.548;2022-08-11T07:59:25;2.83;;;2.47;;
11582;SDS011;34299;50.820;4.548;2022-08-11T08:02:10;2.50;;;2.30;;
11582;SDS011;34299;50.820;4.548;2022-08-11T08:04:56;2.83;;;2.37;;
11582;SDS011;34299;50.820;4.548;2022-08-11T08:07:41;4.20;;;2.80;;
11582;SDS011;34299;50.820;4.548;2022-08-11T08:10:27;4.53;;;2.27;;
11582;SDS011;34299;50.820;4.548;2022-08-11T08:13:12;3.47;;;2.40;;
11582;SDS011;34299;50.820;4.548;2022-08-11T08:15:58;3.00;;;2.57;;
11582;SDS011;34299;50.820;4.548;2022-08-11T08:18:43;4.10;;;2.43;;
11582;SDS011;34299;50.820;4.548;2022-08-11T08:21:10;4.90;;;2.60;;
11582;SDS011;34299;50.820;4.548;2022-08-11T08:23:39;3.03;;;2.60;;
11582;SDS011;34299;50.820;4.548;2022-08-11T08:26:08;3.27;;;2.53;;
11582;SDS011;34299;50.820;4.548;2022-08-11T08:28:50;4.70;;;2.47;;
11582;SDS011;34299;50.820;4.548;2022-08-11T08:31:18;5.47;;;2.80;;
11582;SDS011;34299;50.820;4.548;2022-08-11T08:33:44;2.63;;;2.30;;
11582;SDS011;34299;50.820;4.548;2022-08-11T08:36:11;4.47;;;2.63;;
11582;SDS011;34299;50.820;4.548;2022-08-11T08:38:41;5.57;;;2.43;;
11582;SDS011;34299;50.820;4.548;2022-08-11T08:41:10;4.90;;;2.60;;
11582;SDS011;34299;50.820;4.548;2022-08-11T08:43:37;3.63;;;2.70;;
11582;SDS011;34299;50.820;4.548;2022-08-11T08:46:06;3.23;;;2.30;;
11582;SDS011;34299;50.820;4.548;2022-08-11T08:48:35;4.37;;;2.50;;
11582;SDS011;34299;50.820;4.548;2022-08-11T08:51:03;2.90;;;2.00;;
11582;SDS011;34299;50.820;4.548;2022-08-11T08:53:53;4.20;;;2.67;;
11582;SDS011;34299;50.820;4.548;2022-08-11T08:56:24;2.80;;;2.60;;
11582;SDS011;34299;50.820;4.548;2022-08-11T08:58:53;3.33;;;2.23;;
11582;SDS011;34299;50.820;4.548;2022-08-11T09:01:20;2.73;;;2.33;;
11582;SDS011;34299;50.820;4.548;2022-08-11T09:03:49;4.40;;;2.60;;
11582;SDS011;34299;50.820;4.548;2022-08-11T09:06:17;3.03;;;2.47;;
11582;SDS011;34299;50.820;4.548;2022-08-11T09:08:44;6.20;;;2.43;;
11582;SDS011;34299;50.820;4.548;2022-08-11T09:11:11;2.70;;;2.43;;
11582;SDS011;34299;50.820;4.548;2022-08-11T09:13:58;3.33;;;2.47;;
11582;SDS011;34299;50.820;4.548;2022-08-11T09:16:26;2.70;;;2.27;;
11582;SDS011;34299;50.820;4.548;2022-08-11T09:18:54;2.93;;;2.20;;
11582;SDS011;34299;50.820;4.548;2022-08-11T09:21:24;2.43;;;2.23;;
11582;SDS011;34299;50.820;4.548;2022-08-11T09:23:51;3.50;;;2.43;;
11582;SDS011;34299;50.820;4.548;2022-08-11T09:26:36;3.70;;;2.33;;
11582;SDS011;34299;50.820;4.548;2022-08-11T09:29:23;5.07;;;2.20;;
11582;SDS011;34299;50.820;4.548;2022-08-11T09:31:52;2.53;;;2.33;;
11582;SDS011;34299;50.820;4.548;2022-08-11T09:34:20;3.13;;;2.83;;
11582;SDS011;34299;50.820;4.548;2022-08-11T09:36:47;2.50;;;2.30;;
11582;SDS011;34299;50.820;4.548;2022-08-11T09:39:35;3.90;;;2.37;;
11582;SDS011;34299;50.820;4.548;2022-08-11T09:42:20;3.97;;;2.30;;
11582;SDS011;34299;50.820;4.548;2022-08-11T09:45:10;4.30;;;2.17;;
11582;SDS011;34299;50.820;4.548;2022-08-11T09:47:37;3.67;;;2.20;;
11582;SDS011;34299;50.820;4.548;2022-08-11T09:50:05;2.63;;;2.13;;
11582;SDS011;34299;50.820;4.548;2022-08-11T09:52:35;4.07;;;2.43;;
11582;SDS011;34299;50.820;4.548;2022-08-11T09:55:04;3.93;;;2.50;;
11582;SDS011;34299;50.820;4.548;2022-08-11T09:57:39;4.63;;;2.40;;
11582;SDS011;34299;50.820;4.548;2022-08-11T10:00:28;3.47;;;2.47;;
11582;SDS011;34299;50.820;4.548;2022-08-11T10:02:56;4.27;;;2.53;;
11582;SDS011;34299;50.820;4.548;2022-08-11T10:05:26;3.93;;;2.43;;
11582;SDS011;34299;50.820;4.548;2022-08-11T10:08:12;4.37;;;2.50;;
11582;SDS011;34299;50.820;4.548;2022-08-11T10:10:43;3.03;;;2.43;;
11582;SDS011;34299;50.820;4.548;2022-08-11T10:13:12;2.77;;;2.43;;
11582;SDS011;34299;50.820;4.548;2022-08-11T10:15:43;5.50;;;2.67;;
11582;SDS011;34299;50.820;4.548;2022-08-11T10:18:13;3.40;;;2.30;;
11582;SDS011;34299;50.820;4.548;2022-08-11T10:20:59;2.70;;;2.50;;
11582;SDS011;34299;50.820;4.548;2022-08-11T10:23:27;2.97;;;2.40;;
11582;SDS011;34299;50.820;4.548;2022-08-11T10:26:12;4.03;;;2.57;;
11582;SDS011;34299;50.820;4.548;2022-08-11T10:28:57;2.70;;;2.33;;
11582;SDS011;34299;50.820;4.548;2022-08-11T10:31:27;2.47;;;2.20;;
11582;SDS011;34299;50.820;4.548;2022-08-11T10:34:08;3.07;;;2.53;;
11582;SDS011;34299;50.820;4.548;2022-08-11T10:36:37;3.53;;;2.77;;
11582;SDS011;34299;50.820;4.548;2022-08-11T10:39:09;2.37;;;2.17;;
11582;SDS011;34299;50.820;4.548;2022-08-11T10:41:41;3.40;;;2.40;;
11582;SDS011;34299;50.820;4.548;2022-08-11T10:44:26;3.83;;;2.23;;
11582;SDS011;34299;50.820;4.548;2022-08-11T10:46:55;4.03;;;2.47;;
11582;SDS011;34299;50.820;4.548;2022-08-11T10:49:41;3.37;;;2.73;;
11582;SDS011;34299;50.820;4.548;2022-08-11T10:52:11;3.30;;;2.70;;
11582;SDS011;34299;50.820;4.548;2022-08-11T10:54:55;6.10;;;2.77;;
11582;SDS011;34299;50.820;4.548;2022-08-11T10:57:40;3.90;;;2.87;;
11582;SDS011;34299;50.820;4.548;2022-08-11T11:00:26;3.20;;;2.37;;
11582;SDS011;34299;50.820;4.548;2022-08-11T11:02:55;6.20;;;2.37;;
11582;SDS011;34299;50.820;4.548;2022-08-11T11:05:25;3.33;;;2.40;;
11582;SDS011;34299;50.820;4.548;2022-08-11T11:07:55;3.77;;;2.37;;
11582;SDS011;34299;50.820;4.548;2022-08-11T11:10:24;3.23;;;2.53;;
11582;SDS011;34299;50.820;4.548;2022-08-11T11:12:54;3.53;;;2.60;;
11582;SDS011;34299;50.820;4.548;2022-08-11T11:15:40;2.80;;;2.30;;
11582;SDS011;34299;50.820;4.548;2022-08-11T11:18:28;3.70;;;2.30;;
11582;SDS011;34299;50.820;4.548;2022-08-11T11:21:02;2.73;;;2.03;;
11582;SDS011;34299;50.820;4.548;2022-08-11T11:23:32;2.87;;;2.00;;
11582;SDS011;34299;50.820;4.548;2022-08-11T11:26:04;3.87;;;2.57;;
11582;SDS011;34299;50.820;4.548;2022-08-11T11:28:51;3.80;;;2.80;;
11582;SDS011;34299;50.820;4.548;2022-08-11T11:31:26;3.57;;;2.60;;
11582;SDS011;34299;50.820;4.548;2022-08-11T11:34:11;3.53;;;2.27;;
11582;SDS011;34299;50.820;4.548;2022-08-11T11:36:40;2.10;;;1.90;;
11582;SDS011;34299;50.820;4.548;2022-08-11T11:39:10;2.30;;;2.10;;
11582;SDS011;34299;50.820;4.548;2022-08-11T11:41:37;2.43;;;2.23;;
11582;SDS011;34299;50.820;4.548;2022-08-11T11:44:05;3.77;;;2.33;;
11582;SDS011;34299;50.820;4.548;2022-08-11T11:46:32;3.87;;;2.20;;
11582;SDS011;34299;50.820;4.548;2022-08-11T11:49:01;4.60;;;2.25;;
11582;SDS011;34299;50.820;4.548;2022-08-11T11:51:35;2.97;;;2.00;;
11582;SDS011;34299;50.820;4.548;2022-08-11T11:54:02;2.57;;;2.37;;
11582;SDS011;34299;50.820;4.548;2022-08-11T11:56:30;3.83;;;2.20;;
11582;SDS011;34299;50.820;4.548;2022-08-11T11:58:58;2.53;;;2.30;;
11582;SDS011;34299;50.820;4.548;2022-08-11T12:01:42;4.30;;;2.10;;
11582;SDS011;34299;50.820;4.548;2022-08-11T12:04:10;2.90;;;2.10;;
11582;SDS011;34299;50.820;4.548;2022-08-11T12:06:41;2.25;;;2.05;;
11582;SDS011;34299;50.820;4.548;2022-08-11T12:09:08;3.30;;;2.33;;
11582;SDS011;34299;50.820;4.548;2022-08-11T12:11:38;5.25;;;2.33;;
11582;SDS011;34299;50.820;4.548;2022-08-11T12:14:23;2.78;;;2.05;;
11582;SDS011;34299;50.820;4.548;2022-08-11T12:16:52;4.07;;;2.22;;
11582;SDS011;34299;50.820;4.548;2022-08-11T12:19:22;2.00;;;1.90;;
11582;SDS011;34299;50.820;4.548;2022-08-11T12:21:51;3.53;;;2.42;;
11582;SDS011;34299;50.820;4.548;2022-08-11T12:24:35;2.35;;;2.00;;
11582;SDS011;34299;50.820;4.548;2022-08-11T12:27:23;2.22;;;2.00;;
11582;SDS011;34299;50.820;4.548;2022-08-11T12:29:52;3.33;;;2.20;;
11582;SDS011;34299;50.820;4.548;2022-08-11T12:32:20;2.33;;;2.10;;
11582;SDS011;34299;50.820;4.548;2022-08-11T12:34:48;3.25;;;2.25;;
11582;SDS011;34299;50.820;4.548;2022-08-11T12:37:19;2.65;;;2.08;;
11582;SDS011;34299;50.820;4.548;2022-08-11T12:39:47;1.98;;;1.83;;
11582;SDS011;34299;50.820;4.548;2022-08-11T12:42:33;5.60;;;2.00;;
11582;SDS011;34299;50.820;4.548;2022-08-11T12:45:21;2.85;;;1.98;;
11582;SDS011;34299;50.820;4.548;2022-08-11T12:47:53;2.17;;;1.83;;
11582;SDS011;34299;50.820;4.548;2022-08-11T12:50:41;2.00;;;1.80;;
11582;SDS011;34299;50.820;4.548;2022-08-11T12:53:28;3.20;;;2.22;;
11582;SDS011;34299;50.820;4.548;2022-08-11T12:55:58;2.47;;;2.00;;
11582;SDS011;34299;50.820;4.548;2022-08-11T12:58:46;2.58;;;2.35;;
11582;SDS011;34299;50.820;4.548;2022-08-11T13:01:15;2.00;;;1.90;;
11582;SDS011;34299;50.820;4.548;2022-08-11T13:04:00;3.38;;;2.30;;
11582;SDS011;34299;50.820;4.548;2022-08-11T13:06:45;4.20;;;2.10;;
11582;SDS011;34299;50.820;4.548;2022-08-11T13:09:14;3.83;;;2.13;;
11582;SDS011;34299;50.820;4.548;2022-08-11T13:11:41;2.58;;;1.88;;
11582;SDS011;34299;50.820;4.548;2022-08-11T13:14:26;4.93;;;2.35;;
11582;SDS011;34299;50.820;4.548;2022-08-11T13:16:53;2.33;;;2.13;;
11582;SDS011;34299;50.820;4.548;2022-08-11T13:19:39;3.53;;;2.63;;
11582;SDS011;34299;50.820;4.548;2022-08-11T13:22:07;4.10;;;2.28;;
11582;SDS011;34299;50.820;4.548;2022-08-11T13:24:37;4.55;;;2.20;;
11582;SDS011;34299;50.820;4.548;2022-08-11T13:27:05;4.22;;;2.40;;
11582;SDS011;34299;50.820;4.548;2022-08-11T13:29:32;6.38;;;2.30;;
11582;SDS011;34299;50.820;4.548;2022-08-11T13:32:00;3.28;;;2.10;;
11582;SDS011;34299;50.820;4.548;2022-08-11T13:34:28;2.33;;;2.13;;
11582;SDS011;34299;50.820;4.548;2022-08-11T13:36:57;2.40;;;2.20;;
11582;SDS011;34299;50.820;4.548;2022-08-11T13:39:49;3.83;;;2.05;;
11582;SDS011;34299;50.820;4.548;2022-08-11T13:42:18;2.97;;;2.28;;
11582;SDS011;34299;50.820;4.548;2022-08-11T13:44:46;5.53;;;2.15;;
11582;SDS011;34299;50.820;4.548;2022-08-11T13:47:13;2.38;;;2.10;;
11582;SDS011;34299;50.820;4.548;2022-08-11T13:49:41;2.65;;;2.13;;
11582;SDS011;34299;50.820;4.548;2022-08-11T13:52:09;3.15;;;2.15;;
11582;SDS011;34299;50.820;4.548;2022-08-11T13:54:38;7.30;;;2.90;;
11582;SDS011;34299;50.820;4.548;2022-08-11T13:57:08;3.20;;;2.22;;
11582;SDS011;34299;50.820;4.548;2022-08-11T13:59:36;2.53;;;2.30;;
11582;SDS011;34299;50.820;4.548;2022-08-11T14:02:04;3.20;;;1.90;;
11582;SDS011;34299;50.820;4.548;2022-08-11T14:04:33;4.05;;;2.30;;
11582;SDS011;34299;50.820;4.548;2022-08-11T14:07:04;2.88;;;2.20;;
11582;SDS011;34299;50.820;4.548;2022-08-11T14:09:33;3.83;;;2.75;;
11582;SDS011;34299;50.820;4.548;2022-08-11T14:12:02;2.20;;;2.00;;
11582;SDS011;34299;50.820;4.548;2022-08-11T14:14:55;3.75;;;2.25;;
11582;SDS011;34299;50.820;4.548;2022-08-11T14:17:24;3.00;;;2.60;;
11582;SDS011;34299;50.820;4.548;2022-08-11T14:19:52;2.70;;;1.88;;
11582;SDS011;34299;50.820;4.548;2022-08-11T14:22:19;2.80;;;2.38;;
11582;SDS011;34299;50.820;4.548;2022-08-11T14:24:46;2.95;;;2.13;;
11582;SDS011;34299;50.820;4.548;2022-08-11T14:27:15;3.88;;;2.30;;
11582;SDS011;34299;50.820;4.548;2022-08-11T14:29:42;4.78;;;2.50;;
11582;SDS011;34299;50.820;4.548;2022-08-11T14:32:12;3.72;;;2.50;;
11582;SDS011;34299;50.820;4.548;2022-08-11T14:34:41;2.92;;;2.28;;
11582;SDS011;34299;50.820;4.548;2022-08-11T14:37:09;4.25;;;2.10;;
11582;SDS011;34299;50.820;4.548;2022-08-11T14:39:39;2.35;;;2.10;;
11582;SDS011;34299;50.820;4.548;2022-08-11T14:42:07;2.75;;;1.95;;
11582;SDS011;34299;50.820;4.548;2022-08-11T14:44:53;3.08;;;2.60;;
11582;SDS011;34299;50.820;4.548;2022-08-11T14:47:41;6.18;;;2.67;;
11582;SDS011;34299;50.820;4.548;2022-08-11T14:50:10;3.72;;;2.22;;
11582;SDS011;34299;50.820;4.548;2022-08-11T14:52:42;2.78;;;2.45;;
11582;SDS011;34299;50.820;4.548;2022-08-11T14:55:10;2.70;;;2.00;;
11582;SDS011;34299;50.820;4.548;2022-08-11T14:57:55;3.10;;;2.28;;
11582;SDS011;34299;50.820;4.548;2022-08-11T15:00:23;4.40;;;2.65;;
11582;SDS011;34299;50.820;4.548;2022-08-11T15:02:52;2.78;;;2.08;;
11582;SDS011;34299;50.820;4.548;2022-08-11T15:05:34;5.05;;;2.38;;
11582;SDS011;34299;50.820;4.548;2022-08-11T15:08:02;4.22;;;2.28;;
11582;SDS011;34299;50.820;4.548;2022-08-11T15:10:29;2.75;;;2.30;;
11582;SDS011;34299;50.820;4.548;2022-08-11T15:12:57;4.15;;;2.28;;
11582;SDS011;34299;50.820;4.548;2022-08-11T15:15:24;2.78;;;2.22;;
11582;SDS011;34299;50.820;4.548;2022-08-11T15:18:09;2.83;;;2.60;;
11582;SDS011;34299;50.820;4.548;2022-08-11T15:20:37;2.50;;;2.30;;
11582;SDS011;34299;50.820;4.548;2022-08-11T15:23:22;3.15;;;2.63;;
11582;SDS011;34299;50.820;4.548;2022-08-11T15:26:08;4.55;;;2.72;;
11582;SDS011;34299;50.820;4.548;2022-08-11T15:28:36;3.22;;;2.20;;
11582;SDS011;34299;50.820;4.548;2022-08-11T15:31:22;4.20;;;2.28;;
11582;SDS011;34299;50.820;4.548;2022-08-11T15:34:10;2.60;;;2.40;;
11582;SDS011;34299;50.820;4.548;2022-08-11T15:36:56;3.40;;;2.53;;
11582;SDS011;34299;50.820;4.548;2022-08-11T15:39:44;2.83;;;2.53;;
11582;SDS011;34299;50.820;4.548;2022-08-11T15:42:33;2.38;;;2.22;;
11582;SDS011;34299;50.820;4.548;2022-08-11T15:45:21;2.53;;;2.33;;
11582;SDS011;34299;50.820;4.548;2022-08-11T15:48:07;2.60;;;1.98;;
11582;SDS011;34299;50.820;4.548;2022-08-11T15:50:37;4.05;;;2.38;;
11582;SDS011;34299;50.820;4.548;2022-08-11T15:53:07;2.95;;;2.20;;
11582;SDS011;34299;50.820;4.548;2022-08-11T15:55:34;3.63;;;2.08;;
11582;SDS011;34299;50.820;4.548;2022-08-11T15:58:05;2.58;;;2.38;;
11582;SDS011;34299;50.820;4.548;2022-08-11T16:00:51;2.42;;;2.22;;
11582;SDS011;34299;50.820;4.548;2022-08-11T16:03:48;2.22;;;2.03;;
11582;SDS011;34299;50.820;4.548;2022-08-11T16:06:36;2.42;;;2.22;;
11582;SDS011;34299;50.820;4.548;2022-08-11T16:09:04;2.40;;;2.00;;
11582;SDS011;34299;50.820;4.548;2022-08-11T16:11:33;3.53;;;2.20;;
11582;SDS011;34299;50.820;4.548;2022-08-11T16:14:01;3.80;;;2.33;;
11582;SDS011;34299;50.820;4.548;2022-08-11T16:16:42;4.65;;;2.22;;
11582;SDS011;34299;50.820;4.548;2022-08-11T16:19:10;3.90;;;2.28;;
11582;SDS011;34299;50.820;4.548;2022-08-11T16:21:39;3.10;;;2.00;;
11582;SDS011;34299;50.820;4.548;2022-08-11T16:24:08;2.78;;;1.75;;
11582;SDS011;34299;50.820;4.548;2022-08-11T16:26:38;5.18;;;2.10;;
11582;SDS011;34299;50.820;4.548;2022-08-11T16:29:07;3.25;;;2.08;;
11582;SDS011;34299;50.820;4.548;2022-08-11T16:31:37;2.08;;;1.90;;